Time;durP1;ratioP1;P1;durP2;ratioP2;P2;SDS_P1;SDS_P2;PMS_P1;PMS_P2;Temp;Humidity;BMP_temperature;BMP_pressure;BME280_temperature;BME280_humidity;BME280_pressure;Samples;Min_cycle;Max_cycle;Signal;HPM_P1;HPM_P2
2022/09/26 00:00:24;;;;;;;2.88;2.50;;;;;;;8.15;100.00;95511.78;6177146;23;20008;-63
2022/09/26 00:02:49;;;;;;;2.75;2.65;;;;;;;8.14;100.00;95515.38;6176834;23;20420;-63
2022/09/26 00:05:14;;;;;;;2.83;2.72;;;;;;;8.07;100.00;95507.19;6150746;23;20029;-63
2022/09/26 00:07:40;;;;;;;2.85;2.60;;;;;;;8.05;100.00;95509.13;6177331;23;20443;-64
2022/09/26 00:10:06;;;;;;;2.83;2.63;;;;;;;8.00;100.00;95501.63;6176968;23;19997;-59
2022/09/26 00:12:32;;;;;;;3.15;2.95;;;;;;;7.97;100.00;95504.50;6177055;23;20001;-59
2022/09/26 00:14:57;;;;;;;4.65;2.53;;;;;;;7.97;100.00;95501.91;6176448;23;20007;-59
2022/09/26 00:17:22;;;;;;;3.97;2.97;;;;;;;7.97;100.00;95494.03;6176449;23;20013;-59
2022/09/26 00:19:48;;;;;;;5.53;2.67;;;;;;;7.94;100.00;95496.91;6176851;23;19997;-59
2022/09/26 00:22:13;;;;;;;6.53;3.20;;;;;;;7.91;100.00;95488.47;6177806;23;20005;-59
2022/09/26 00:24:38;;;;;;;6.32;3.47;;;;;;;7.93;100.00;95487.41;6176811;23;20001;-57
2022/09/26 00:27:04;;;;;;;8.43;2.80;;;;;;;7.93;100.00;95486.56;6176877;23;19997;-69
2022/09/26 00:29:29;;;;;;;2.50;2.40;;;;;;;7.96;100.00;95487.13;6176873;23;20466;-69
2022/09/26 00:31:55;;;;;;;4.18;2.20;;;;;;;7.94;100.00;95483.81;6176845;22;20383;-69
2022/09/26 00:34:20;;;;;;;2.53;2.42;;;;;;;7.93;100.00;95484.78;6176824;23;20430;-69
2022/09/26 00:36:45;;;;;;;2.30;2.20;;;;;;;7.90;100.00;95479.78;6177550;23;20004;-68
2022/09/26 00:39:13;;;;;;;2.50;2.40;;;;;;;7.84;100.00;95472.44;6176482;23;20001;-69
2022/09/26 00:41:39;;;;;;;2.60;2.40;;;;;;;7.83;100.00;95473.38;6150452;23;20088;-69
2022/09/26 00:44:33;;;;;;;2.03;1.92;;;;;;;7.81;100.00;95470.06;6176511;23;20047;-69
2022/09/26 00:47:00;;;;;;;6.57;2.67;;;;;;;7.80;100.00;95471.03;6176448;23;20034;-59
2022/09/26 00:49:33;;;;;;;2.05;1.95;;;;;;;7.74;100.00;95467.16;6176570;23;20001;-62
2022/09/26 00:52:00;;;;;;;5.20;1.98;;;;;;;7.73;100.00;95468.09;6176440;23;19997;-63
2022/09/26 00:54:28;;;;;;;2.63;2.40;;;;;;;7.72;100.00;95459.44;6176732;23;20486;-62
2022/09/26 00:56:58;;;;;;;3.90;2.33;;;;;;;7.76;100.00;95459.16;6175847;23;20019;-62
2022/09/26 00:59:28;;;;;;;3.30;3.10;;;;;;;7.65;100.00;95465.31;6176636;23;20001;-61
2022/09/26 01:01:57;;;;;;;3.67;3.47;;;;;;;7.65;100.00;95452.22;6176511;23;20076;-62
2022/09/26 01:04:26;;;;;;;4.72;4.32;;;;;;;7.63;100.00;95451.50;6176314;23;20091;-62
2022/09/26 01:06:54;;;;;;;6.30;4.38;;;;;;;7.60;100.00;95449.97;6176449;23;20324;-69
2022/09/26 01:09:19;;;;;;;6.25;4.65;;;;;;;7.59;100.00;95445.69;6176764;23;20005;-64
2022/09/26 01:11:45;;;;;;;5.00;4.53;;;;;;;7.58;100.00;95447.50;6176831;23;20012;-64
2022/09/26 01:14:12;;;;;;;4.95;4.55;;;;;;;7.57;100.00;95442.38;6175218;23;19993;-64
2022/09/26 01:16:40;;;;;;;4.35;3.97;;;;;;;7.51;100.00;95445.50;6176349;23;20024;-64
2022/09/26 01:19:22;;;;;;;3.95;3.65;;;;;;;7.48;100.00;95443.16;6176705;22;20001;-65
2022/09/26 01:22:34;;;;;;;3.47;3.28;;;;;;;7.42;100.00;95440.09;6176799;23;20008;-64
2022/09/26 01:25:08;;;;;;;3.30;3.10;;;;;;;7.44;100.00;95442.56;6176176;23;20013;-64
2022/09/26 01:28:01;;;;;;;5.85;3.05;;;;;;;7.42;100.00;95447.97;6176536;23;19997;-59
2022/09/26 01:30:54;;;;;;;4.28;3.40;;;;;;;7.41;100.00;95441.06;6177127;23;20036;-59
2022/09/26 01:33:45;;;;;;;4.47;2.90;;;;;;;7.40;100.00;95438.56;6178298;23;20122;-58
2022/09/26 01:36:22;;;;;;;3.40;2.75;;;;;;;7.41;100.00;95446.28;6177688;23;20431;-58
2022/09/26 01:38:57;;;;;;;3.10;2.90;;;;;;;7.41;100.00;95446.28;6178083;23;20016;-58
2022/09/26 01:41:32;;;;;;;;;;;;;;;7.35;100.00;95438.94;6178336;22;20008;-59
2022/09/26 01:44:07;;;;;;;4.10;3.63;;;;;;;7.37;100.00;95434.41;6177093;22;19908;-67
2022/09/26 01:46:51;;;;;;;2.83;2.65;;;;;;;7.36;100.00;95424.88;6177937;23;20005;-69
2022/09/26 01:49:34;;;;;;;5.60;2.90;;;;;;;7.38;100.00;95430.81;6177863;23;19997;-68
2022/09/26 01:52:14;;;;;;;3.42;2.80;;;;;;;7.39;100.00;95421.19;6177563;23;20001;-69
2022/09/26 01:55:19;;;;;;;3.28;2.60;;;;;;;7.42;100.00;95421.75;6177479;23;19996;-69
2022/09/26 01:57:54;;;;;;;4.40;2.22;;;;;;;7.43;100.00;95420.81;6177706;23;20033;-69
2022/09/26 02:00:20;;;;;;;2.33;2.22;;;;;;;7.47;100.00;95431.03;6178173;23;20001;-69
2022/09/26 02:02:48;;;;;;;4.75;2.25;;;;;;;7.53;100.00;95433.13;6177344;23;20463;-61
2022/09/26 02:05:24;;;;;;;2.58;2.40;;;;;;;7.60;100.00;95435.09;6177871;23;20001;-64
2022/09/26 02:08:25;;;;;;;2.58;2.22;;;;;;;7.66;100.00;95439.00;6177733;23;20024;-61
2022/09/26 02:11:17;;;;;;;2.20;2.10;;;;;;;7.76;100.00;95438.19;6177279;23;20100;-61
2022/09/26 02:13:45;;;;;;;2.30;2.20;;;;;;;7.83;100.00;95440.16;6177230;23;19997;-61
2022/09/26 02:16:18;;;;;;;2.60;2.40;;;;;;;7.89;100.00;95436.19;6177619;23;20024;-62
2022/09/26 02:18:52;;;;;;;3.05;2.13;;;;;;;7.96;100.00;95439.13;6176940;23;20034;-61
2022/09/26 02:21:21;;;;;;;2.45;2.33;;;;;;;7.99;100.00;95436.25;6177740;23;20023;-61
2022/09/26 02:23:52;;;;;;;2.45;2.35;;;;;;;8.00;100.00;95437.91;6177716;23;20439;-61
2022/09/26 02:26:17;;;;;;;2.50;2.40;;;;;;;8.02;100.00;95428.09;6177687;23;20036;-69
2022/09/26 02:28:43;;;;;;;5.35;2.40;;;;;;;8.08;100.00;95427.56;6177043;23;19997;-69
2022/09/26 02:31:12;;;;;;;2.20;2.00;;;;;;;8.12;100.00;95433.38;6176900;23;20465;-69
2022/09/26 02:33:38;;;;;;;2.58;2.08;;;;;;;8.13;100.00;95432.41;6176126;23;20001;-69
2022/09/26 02:36:09;;;;;;;2.42;2.33;;;;;;;8.14;100.00;95419.16;6177431;23;19997;-69
2022/09/26 02:38:36;;;;;;;2.60;2.40;;;;;;;8.19;100.00;95429.25;6177588;23;20019;-69
2022/09/26 02:41:01;;;;;;;2.88;2.70;;;;;;;8.23;100.00;95421.97;6177367;23;20009;-70
2022/09/26 02:43:36;;;;;;;4.18;3.05;;;;;;;8.29;100.00;95416.16;6177558;23;20085;-64
2022/09/26 02:46:10;;;;;;;3.25;2.60;;;;;;;8.28;100.00;95412.69;6177689;23;20001;-58
2022/09/26 02:48:47;;;;;;;2.95;2.75;;;;;;;8.23;100.00;95409.66;6177379;23;20001;-58
2022/09/26 02:51:38;;;;;;;2.58;2.40;;;;;;;8.16;100.00;95404.13;6177280;23;20001;-59
2022/09/26 02:54:14;;;;;;;2.00;1.90;;;;;;;8.14;100.00;95415.72;6176819;23;20005;-59
2022/09/26 02:56:58;;;;;;;2.58;2.20;;;;;;;8.13;100.00;95407.00;6177204;23;20035;-59
2022/09/26 02:59:33;;;;;;;2.58;2.38;;;;;;;8.11;100.00;95408.94;6177212;23;19997;-59
2022/09/26 03:02:04;;;;;;;2.45;2.35;;;;;;;8.07;100.00;95409.34;6177594;23;20001;-64
2022/09/26 03:04:53;;;;;;;2.40;2.30;;;;;;;8.05;100.00;95411.25;6177093;23;20463;-64
2022/09/26 03:07:36;;;;;;;3.10;2.85;;;;;;;8.03;100.00;95404.34;6177300;23;20001;-63
2022/09/26 03:10:04;;;;;;;2.65;2.45;;;;;;;8.04;100.00;95392.09;6177205;23;20013;-64
2022/09/26 03:12:31;;;;;;;2.65;2.30;;;;;;;8.04;100.00;95397.34;6177248;23;20347;-64
2022/09/26 03:15:00;;;;;;;2.25;2.13;;;;;;;7.99;100.00;95392.47;6177545;23;20415;-64
2022/09/26 03:17:27;;;;;;;3.83;2.63;;;;;;;7.94;100.00;95389.44;6177566;23;20070;-64
2022/09/26 03:19:59;;;;;;;2.08;1.98;;;;;;;7.91;100.00;95399.34;6177285;23;20001;-63
2022/09/26 03:22:25;;;;;;;3.47;3.22;;;;;;;7.92;100.00;95393.16;6177181;23;20005;-63
2022/09/26 03:24:50;;;;;;;3.78;3.50;;;;;;;7.86;100.00;95391.91;6177106;23;20440;-61
2022/09/26 03:27:17;;;;;;;3.00;2.80;;;;;;;7.86;100.00;95386.66;6177093;23;20008;-61
2022/09/26 03:29:43;;;;;;;3.08;2.78;;;;;;;7.86;100.00;95391.91;6177469;23;20456;-61
2022/09/26 03:32:08;;;;;;;2.42;2.33;;;;;;;7.81;100.00;95386.22;6176021;23;20119;-61
2022/09/26 03:34:37;;;;;;;3.83;2.22;;;;;;;7.78;100.00;95392.56;6176531;23;20088;-61
2022/09/26 03:37:03;;;;;;;2.20;2.10;;;;;;;7.73;100.00;95386.88;6177122;22;20032;-61
2022/09/26 03:39:28;;;;;;;3.83;2.20;;;;;;;7.71;100.00;95383.56;6177449;23;19997;-61
2022/09/26 03:41:55;;;;;;;2.20;2.10;;;;;;;7.69;100.00;95383.69;6177075;23;20009;-62
2022/09/26 03:44:20;;;;;;;2.50;2.30;;;;;;;7.67;100.00;95375.13;6150778;22;20001;-69
2022/09/26 03:46:46;;;;;;;2.58;2.38;;;;;;;7.67;100.00;95376.91;6177386;23;20043;-68
2022/09/26 03:49:11;;;;;;;2.20;2.10;;;;;;;7.61;100.00;95383.50;6177015;23;19997;-69
2022/09/26 03:51:36;;;;;;;1.98;1.88;;;;;;;7.58;100.00;95384.63;6177020;23;20061;-69
2022/09/26 03:54:02;;;;;;;2.13;2.03;;;;;;;7.53;100.00;95380.72;6176949;23;20000;-68
2022/09/26 03:56:27;;;;;;;5.10;3.00;;;;;;;7.45;100.00;95370.88;6176970;23;20008;-69
2022/09/26 03:58:53;;;;;;;2.33;2.22;;;;;;;7.38;100.00;95373.19;6176327;23;20553;-69
2022/09/26 04:01:20;;;;;;;2.50;2.33;;;;;;;7.39;100.00;95364.38;6176767;23;20007;-68
2022/09/26 04:03:47;;;;;;;2.60;2.38;;;;;;;7.37;100.00;95366.28;6177411;23;20005;-63
2022/09/26 04:06:18;;;;;;;2.25;2.15;;;;;;;7.36;100.00;95358.59;6176844;23;20055;-61
2022/09/26 04:08:45;;;;;;;3.38;2.22;;;;;;;7.34;100.00;95361.31;6176990;23;20662;-61
2022/09/26 04:11:13;;;;;;;2.50;1.95;;;;;;;7.33;100.00;95362.28;6176866;23;20446;-63
2022/09/26 04:13:39;;;;;;;2.67;2.47;;;;;;;7.35;100.00;95359.56;6176994;23;20000;-62
2022/09/26 04:16:06;;;;;;;3.10;2.38;;;;;;;7.33;100.00;95357.03;6177714;23;20346;-62
2022/09/26 04:18:33;;;;;;;1.90;1.80;;;;;;;7.25;100.00;95354.25;6150410;22;20336;-64
2022/09/26 04:21:10;;;;;;;2.13;2.03;;;;;;;7.21;100.00;95348.44;6177217;22;20338;-64
2022/09/26 04:23:39;;;;;;;2.38;2.20;;;;;;;7.20;100.00;95353.81;6176886;23;20006;-68
2022/09/26 04:26:12;;;;;;;2.47;2.08;;;;;;;7.23;100.00;95356.19;6177068;23;20399;-69
2022/09/26 04:28:38;;;;;;;2.15;2.05;;;;;;;7.23;100.00;95351.75;6175065;23;20074;-69
2022/09/26 04:31:05;;;;;;;3.58;1.73;;;;;;;7.19;100.00;95346.94;6176371;23;20090;-69
2022/09/26 04:33:32;;;;;;;2.65;2.15;;;;;;;7.12;100.00;95350.03;6176047;23;19993;-69
2022/09/26 04:36:09;;;;;;;5.43;2.55;;;;;;;7.10;100.00;95353.78;6150700;23;20514;-69
2022/09/26 04:38:35;;;;;;;7.70;2.13;;;;;;;7.05;100.00;95345.44;6177220;23;20080;-64
2022/09/26 04:41:13;;;;;;;2.38;2.20;;;;;;;6.97;100.00;95341.69;6177040;23;20469;-62
2022/09/26 04:43:39;;;;;;;8.43;3.53;;;;;;;6.96;100.00;95344.44;6176750;23;20032;-61
2022/09/26 04:46:09;;;;;;;2.85;2.20;;;;;;;6.95;100.00;95340.16;6177138;23;20005;-61
2022/09/26 04:48:35;;;;;;;2.33;2.22;;;;;;;6.92;100.00;95332.56;6177012;23;20001;-61
2022/09/26 04:51:08;;;;;;;2.35;2.15;;;;;;;6.88;100.00;95330.19;6177086;23;20012;-61
2022/09/26 04:53:34;;;;;;;2.30;2.20;;;;;;;6.86;100.00;95334.75;6177259;23;20072;-61
2022/09/26 04:56:00;;;;;;;3.15;2.92;;;;;;;6.84;100.00;95326.19;6177167;23;20515;-61
2022/09/26 04:58:27;;;;;;;2.40;2.30;;;;;;;6.79;100.00;95328.38;6176577;23;20001;-62
2022/09/26 05:00:52;;;;;;;7.13;2.30;;;;;;;6.72;100.00;95335.88;6177065;22;20610;-63
2022/09/26 05:03:18;;;;;;;3.70;2.20;;;;;;;6.70;100.00;95334.34;6176890;23;20006;-63
2022/09/26 05:05:46;;;;;;;2.40;2.20;;;;;;;6.73;100.00;95336.69;6177498;23;20012;-63
2022/09/26 05:08:12;;;;;;;7.80;2.20;;;;;;;6.72;100.00;95328.03;6178220;23;19997;-63
2022/09/26 05:10:38;;;;;;;2.63;2.42;;;;;;;6.72;100.00;95335.03;6178679;22;20009;-63
2022/09/26 05:13:06;;;;;;;2.88;2.67;;;;;;;6.71;100.00;95334.22;6178274;23;20399;-63
2022/09/26 05:15:32;;;;;;;2.83;2.40;;;;;;;6.67;100.00;95329.38;6178039;23;20004;-63
2022/09/26 05:17:59;;;;;;;2.80;2.38;;;;;;;6.65;100.00;95326.06;6177980;23;20017;-61
2022/09/26 05:20:30;;;;;;;2.13;2.00;;;;;;;6.61;100.00;95322.84;6178069;23;20085;-69
2022/09/26 05:23:06;;;;;;;3.88;2.33;;;;;;;6.59;100.00;95324.75;6178364;23;20367;-69
2022/09/26 05:28:27;;;;;;;2.53;2.30;;;;;;;6.56;100.00;95315.41;6178071;23;20008;-69
2022/09/26 05:30:53;;;;;;;2.72;2.40;;;;;;;6.57;100.00;95311.81;6177782;23;19997;-68
2022/09/26 05:33:18;;;;;;;4.88;2.67;;;;;;;6.57;100.00;95314.44;6177922;23;19997;-68
2022/09/26 05:35:49;;;;;;;3.03;2.70;;;;;;;6.61;100.00;95311.56;6177809;22;20401;-62
2022/09/26 05:38:14;;;;;;;2.30;2.20;;;;;;;6.64;100.00;95312.16;6177478;22;20431;-61
2022/09/26 05:40:58;;;;;;;3.47;2.50;;;;;;;6.62;100.00;95313.22;6178000;23;20075;-62
2022/09/26 05:43:28;;;;;;;9.48;2.75;;;;;;;6.61;100.00;95322.03;6177091;23;20084;-61
2022/09/26 05:45:58;;;;;;;4.20;2.22;;;;;;;6.70;100.00;95310.78;6177772;23;20015;-63
2022/09/26 05:48:25;;;;;;;2.60;2.40;;;;;;;6.67;100.00;95321.53;6177718;22;20005;-63
2022/09/26 05:50:51;;;;;;;3.03;2.70;;;;;;;6.63;100.00;95318.34;6177996;23;20005;-63
2022/09/26 05:53:16;;;;;;;2.83;2.58;;;;;;;6.58;100.00;95326.56;6177352;23;19993;-61
2022/09/26 05:55:42;;;;;;;3.10;2.90;;;;;;;6.55;100.00;95318.97;6178361;23;20011;-74
2022/09/26 05:58:08;;;;;;;3.13;2.92;;;;;;;6.55;100.00;95316.34;6177293;23;20422;-73
2022/09/26 06:00:35;;;;;;;3.03;2.78;;;;;;;6.59;100.00;95322.16;6176690;22;20447;-64
2022/09/26 06:03:02;;;;;;;3.28;3.08;;;;;;;6.64;100.00;95322.63;6176147;22;20470;-64
2022/09/26 06:05:28;;;;;;;6.70;3.60;;;;;;;6.71;100.00;95315.06;6176409;23;19997;-65
2022/09/26 06:07:54;;;;;;;3.65;2.92;;;;;;;6.75;100.00;95308.66;6175871;23;20062;-64
2022/09/26 06:10:20;;;;;;;3.33;3.08;;;;;;;6.76;100.00;95314.69;6177546;23;20001;-63
2022/09/26 06:12:46;;;;;;;6.43;3.35;;;;;;;6.79;100.00;95315.28;6177292;23;20463;-63
2022/09/26 06:15:11;;;;;;;6.55;3.88;;;;;;;6.82;100.00;95315.03;6177852;23;20003;-68
2022/09/26 06:17:37;;;;;;;4.68;3.83;;;;;;;6.84;100.00;95310.50;6177229;23;20027;-59
2022/09/26 06:20:04;;;;;;;8.43;3.97;;;;;;;6.83;100.00;95311.44;6178313;23;20076;-69
2022/09/26 06:22:32;;;;;;;4.07;3.78;;;;;;;6.87;100.00;95307.63;6177765;23;20001;-69
2022/09/26 06:24:58;;;;;;;4.57;4.18;;;;;;;6.91;100.00;95312.59;6177219;23;20008;-69
2022/09/26 06:27:24;;;;;;;4.55;3.92;;;;;;;6.92;100.00;95307.22;6177523;23;20001;-70
2022/09/26 06:29:50;;;;;;;5.05;3.53;;;;;;;6.92;100.00;95312.47;6177321;23;20447;-69
2022/09/26 06:32:15;;;;;;;4.30;4.00;;;;;;;6.88;100.00;95309.28;6178042;23;20376;-69
2022/09/26 06:34:40;;;;;;;7.10;4.25;;;;;;;6.90;100.00;95318.78;6177947;23;19997;-68
2022/09/26 06:37:06;;;;;;;4.32;3.92;;;;;;;6.91;100.00;95312.59;6178124;23;20043;-59
2022/09/26 06:39:34;;;;;;;4.13;3.72;;;;;;;6.89;100.00;95310.13;6151024;23;20058;-63
2022/09/26 06:42:01;;;;;;;4.90;4.50;;;;;;;6.92;100.00;95306.38;6177724;22;20012;-63
2022/09/26 06:44:27;;;;;;;4.63;4.28;;;;;;;6.93;100.00;95310.66;6177721;23;20005;-63
2022/09/26 06:46:52;;;;;;;4.50;3.90;;;;;;;6.98;100.00;95313.75;6177604;23;20001;-63
2022/09/26 06:49:17;;;;;;;3.92;3.72;;;;;;;6.97;100.00;95315.53;6151805;23;20057;-62
2022/09/26 06:51:45;;;;;;;4.15;3.72;;;;;;;7.00;100.00;95317.88;6176948;23;20085;-63
2022/09/26 06:54:10;;;;;;;4.03;3.63;;;;;;;7.07;100.00;95323.44;6177669;23;19993;-68
2022/09/26 06:56:36;;;;;;;4.38;3.97;;;;;;;7.12;100.00;95320.44;6177643;23;20004;-61
2022/09/26 06:59:02;;;;;;;3.92;3.63;;;;;;;7.20;100.00;95322.41;6178107;23;20404;-58
2022/09/26 07:01:27;;;;;;;4.47;4.13;;;;;;;7.29;100.00;95326.84;6177864;22;20059;-54
2022/09/26 07:03:53;;;;;;;4.32;3.70;;;;;;;7.40;100.00;95318.88;6177558;23;20402;-57
2022/09/26 07:06:18;;;;;;;6.97;3.60;;;;;;;7.52;100.00;95321.44;6178207;23;20076;-57
2022/09/26 07:08:44;;;;;;;4.03;3.72;;;;;;;7.65;100.00;95323.81;6177519;23;20429;-57
2022/09/26 07:11:09;;;;;;;4.10;3.80;;;;;;;7.81;100.00;95323.31;6177748;23;20431;-57
2022/09/26 07:13:35;;;;;;;4.78;3.70;;;;;;;8.01;100.00;95327.63;6177562;23;20335;-67
2022/09/26 07:16:00;;;;;;;4.15;3.60;;;;;;;8.26;100.00;95322.84;6177816;23;20119;-67
2022/09/26 07:18:26;;;;;;;3.38;3.10;;;;;;;8.43;100.00;95318.72;6177466;23;20354;-63
2022/09/26 07:20:52;;;;;;;3.38;3.17;;;;;;;8.58;100.00;95316.53;6178035;23;20004;-63
2022/09/26 07:23:18;;;;;;;4.13;3.13;;;;;;;8.72;100.00;95309.19;6177804;23;20011;-63
2022/09/26 07:25:45;;;;;;;3.88;2.92;;;;;;;8.85;100.00;95304.50;6177582;23;20076;-63
2022/09/26 07:28:11;;;;;;;4.75;3.03;;;;;;;9.02;100.00;95307.38;6150597;23;19997;-63
2022/09/26 07:30:36;;;;;;;4.00;3.10;;;;;;;9.24;100.00;95308.00;6177655;23;19997;-63
2022/09/26 07:33:03;;;;;;;3.47;3.10;;;;;;;9.35;100.00;95299.94;6177411;23;20009;-61
2022/09/26 07:35:34;;;;;;;3.33;3.03;;;;;;;9.44;100.00;95296.47;6177615;23;20004;-60
2022/09/26 07:38:00;;;;;;;4.88;3.72;;;;;;;9.61;100.00;95291.38;6151798;23;20008;-61
2022/09/26 07:40:26;;;;;;;7.28;3.70;;;;;;;9.69;100.00;95285.41;6177487;22;20005;-61
2022/09/26 07:42:52;;;;;;;4.78;2.85;;;;;;;9.77;100.00;95293.41;6177804;23;20050;-61
2022/09/26 07:50:10;;;;;;;2.60;2.40;;;;;;;9.79;100.00;95290.59;6177400;23;20004;-62
2022/09/26 07:50:54;;;;;;;3.08;2.70;;;;;;;10.01;100.00;95284.94;6177933;23;20404;-62
2022/09/26 07:53:20;;;;;;;7.65;2.85;;;;;;;10.02;100.00;95288.41;6177837;23;19993;-60
2022/09/26 07:56:04;;;;;;;3.08;2.85;;;;;;;10.08;100.00;95279.91;6177713;23;20316;-69
2022/09/26 07:58:30;;;;;;;3.50;2.42;;;;;;;10.16;100.00;95284.44;6177451;23;19997;-70
2022/09/26 08:00:56;;;;;;;2.67;1.83;;;;;;;10.15;100.00;95272.25;6177294;23;20054;-70
2022/09/26 08:03:22;;;;;;;2.28;2.17;;;;;;;10.11;100.00;95269.09;6177564;23;20001;-69
2022/09/26 08:05:47;;;;;;;2.92;2.25;;;;;;;10.13;100.00;95266.31;6177381;23;20005;-69
2022/09/26 08:08:13;;;;;;;3.00;2.58;;;;;;;9.98;100.00;95274.72;6177708;23;20004;-70
2022/09/26 08:10:42;;;;;;;2.70;2.50;;;;;;;9.93;100.00;95269.09;6177219;23;20004;-68
2022/09/26 08:13:07;;;;;;;1.77;1.67;;;;;;;10.00;100.00;95269.31;6177593;23;20427;-61
2022/09/26 08:15:32;;;;;;;2.38;2.00;;;;;;;10.11;100.00;95284.06;6177267;23;20000;-62
2022/09/26 08:17:58;;;;;;;5.47;2.03;;;;;;;10.36;100.00;95284.28;6177329;23;20459;-61
2022/09/26 08:20:23;;;;;;;2.00;1.90;;;;;;;10.64;100.00;95289.50;6177535;23;20005;-62
2022/09/26 08:22:48;;;;;;;1.73;1.60;;;;;;;10.83;100.00;95285.84;6177176;23;20040;-62
2022/09/26 08:25:14;;;;;;;4.25;1.90;;;;;;;11.18;100.00;95281.47;6177125;23;20417;-61
2022/09/26 08:27:42;;;;;;;2.92;1.88;;;;;;;11.38;100.00;95283.91;6177279;23;19997;-61
2022/09/26 08:30:09;;;;;;;2.88;2.00;;;;;;;11.36;100.00;95278.75;6177345;23;20607;-62
2022/09/26 08:32:35;;;;;;;1.75;1.65;;;;;;;11.31;95.82;95273.16;6177391;23;20465;-62
2022/09/26 08:35:01;;;;;;;1.95;1.80;;;;;;;11.36;99.39;95278.75;6177138;23;20033;-68
2022/09/26 08:37:28;;;;;;;1.98;1.88;;;;;;;11.45;96.89;95274.38;6177479;23;20020;-68
2022/09/26 08:39:53;;;;;;;1.77;1.67;;;;;;;11.60;96.83;95279.88;6177337;23;20016;-67
2022/09/26 08:42:41;;;;;;;1.80;1.80;;;;;;;11.86;94.41;95284.28;6177240;23;20347;-68
2022/09/26 08:48:14;;;;;;;2.83;2.22;;;;;;;11.92;90.79;95269.59;6176957;23;20480;-68
2022/09/26 08:50:49;;;;;;;4.55;2.42;;;;;;;12.00;89.74;95274.91;6177144;23;20036;-66
2022/09/26 08:53:19;;;;;;;3.90;2.92;;;;;;;12.33;89.19;95267.06;6151124;22;20484;-63
2022/09/26 08:55:47;;;;;;;5.57;3.45;;;;;;;12.52;89.94;95259.81;6177278;23;20098;-63
2022/09/26 08:58:17;;;;;;;7.78;4.13;;;;;;;12.73;88.42;95262.00;6177258;23;20020;-63
2022/09/26 09:00:44;;;;;;;2.35;2.25;;;;;;;12.97;87.94;95255.84;6176910;23;20016;-63
2022/09/26 09:03:43;;;;;;;4.95;3.30;;;;;;;13.14;83.70;95264.56;6176981;23;20005;-63
2022/09/26 09:06:13;;;;;;;4.07;2.30;;;;;;;13.26;86.79;95256.28;6176950;23;20080;-63
2022/09/26 09:08:51;;;;;;;1.85;1.75;;;;;;;13.46;84.95;95257.56;6177161;23;20001;-62
2022/09/26 09:11:58;;;;;;;3.80;2.40;;;;;;;13.44;83.51;95248.16;6177211;23;20072;-61
2022/09/26 09:14:27;;;;;;;2.10;2.00;;;;;;;13.66;81.63;95254.53;6176466;23;20050;-62
2022/09/26 09:16:52;;;;;;;3.25;2.15;;;;;;;13.68;85.57;95262.28;6176781;23;20024;-61
2022/09/26 09:19:29;;;;;;;4.97;1.90;;;;;;;13.67;84.28;95266.75;6176889;23;20001;-61
2022/09/26 09:21:57;;;;;;;1.77;1.67;;;;;;;13.46;83.69;95262.88;6176888;23;20412;-62
2022/09/26 09:24:42;;;;;;;1.90;1.90;;;;;;;13.45;84.16;95258.56;6176643;23;20456;-61
2022/09/26 09:27:07;;;;;;;1.83;1.70;;;;;;;13.43;85.49;95254.44;6176609;23;20001;-61
2022/09/26 09:29:50;;;;;;;2.45;2.13;;;;;;;13.38;82.75;95257.59;6176972;23;20070;-71
2022/09/26 09:32:20;;;;;;;2.17;2.08;;;;;;;13.43;83.99;95255.28;6176802;23;20004;-61
2022/09/26 09:34:48;;;;;;;2.22;2.10;;;;;;;13.50;83.60;95249.28;6176892;22;20134;-62
2022/09/26 09:37:21;;;;;;;1.60;1.50;;;;;;;13.44;85.44;95253.44;6176553;22;20049;-62
2022/09/26 09:39:49;;;;;;;2.35;2.15;;;;;;;13.64;85.49;95251.22;6150052;23;20080;-61
2022/09/26 09:42:17;;;;;;;2.30;2.20;;;;;;;13.85;83.33;95249.81;6176466;23;20008;-62
2022/09/26 09:44:51;;;;;;;3.08;2.78;;;;;;;14.05;80.10;95239.59;6176553;23;20009;-61
2022/09/26 09:47:17;;;;;;;3.25;2.40;;;;;;;14.12;78.49;95237.91;6176500;23;20076;-63
2022/09/26 09:49:45;;;;;;;2.72;2.53;;;;;;;14.21;79.02;95238.66;6176886;23;20054;-68
2022/09/26 09:52:29;;;;;;;2.75;2.55;;;;;;;14.27;78.58;95234.50;6177514;23;20005;-68
2022/09/26 09:55:04;;;;;;;2.33;2.20;;;;;;;14.29;79.30;95232.50;6178113;23;20384;-67
2022/09/26 09:57:48;;;;;;;3.83;2.45;;;;;;;14.24;78.07;95227.72;6178247;23;20454;-68
2022/09/26 10:00:16;;;;;;;3.58;2.55;;;;;;;14.27;78.31;95227.41;6177927;23;20024;-68
2022/09/26 10:03:11;;;;;;;2.63;2.45;;;;;;;14.26;75.20;95228.41;6177908;23;20004;-67
2022/09/26 10:05:45;;;;;;;2.67;2.47;;;;;;;14.31;75.76;95222.56;6177792;23;20084;-68
2022/09/26 10:08:24;;;;;;;2.90;2.70;;;;;;;14.32;75.47;95225.03;6178316;23;19997;-62
2022/09/26 10:11:10;;;;;;;2.47;2.38;;;;;;;14.31;76.20;95226.03;6177760;23;20289;-68
2022/09/26 10:13:36;;;;;;;;;;;;;;;14.47;77.13;95225.09;6178416;23;20434;-67
2022/09/26 10:16:05;;;;;;;2.70;2.55;;;;;;;14.60;76.29;95221.84;6178197;23;19931;-68
2022/09/26 10:18:30;;;;;;;2.25;2.10;;;;;;;14.69;76.54;95213.81;6177620;23;20138;-67
2022/09/26 10:21:01;;;;;;;2.60;2.40;;;;;;;14.82;75.62;95219.34;6177846;23;20020;-67
2022/09/26 10:23:39;;;;;;;2.40;2.20;;;;;;;14.74;73.44;95211.50;6151447;22;20005;-66
2022/09/26 10:26:10;;;;;;;2.95;2.72;;;;;;;14.84;73.50;95209.41;6178240;23;20017;-60
2022/09/26 10:28:57;;;;;;;3.15;2.30;;;;;;;14.99;73.58;95209.41;6177881;23;20023;-62
2022/09/26 10:31:28;;;;;;;2.92;2.72;;;;;;;15.12;73.00;95210.63;6177652;23;20046;-57
2022/09/26 10:33:58;;;;;;;2.38;2.28;;;;;;;15.14;71.74;95211.25;6177805;23;20007;-57
2022/09/26 10:36:30;;;;;;;2.38;2.25;;;;;;;14.96;72.41;95209.78;6177918;22;20392;-57
2022/09/26 10:41:48;;;;;;;3.65;2.60;;;;;;;15.32;70.73;95202.94;6177682;23;20074;-56
2022/09/26 10:44:21;;;;;;;2.45;2.17;;;;;;;15.52;70.90;95207.69;6177093;23;20005;-57
2022/09/26 10:46:50;;;;;;;3.20;2.28;;;;;;;15.56;69.28;95208.94;6177613;22;20001;-68
2022/09/26 10:49:17;;;;;;;3.03;2.30;;;;;;;15.56;69.96;95215.09;6177816;23;19997;-62
2022/09/26 10:51:49;;;;;;;2.42;2.33;;;;;;;15.33;68.86;95215.19;6177619;23;20011;-63
2022/09/26 10:54:21;;;;;;;2.55;2.45;;;;;;;15.55;69.26;95217.91;6177813;23;20042;-62
2022/09/26 10:56:53;;;;;;;3.33;2.55;;;;;;;15.57;68.75;95207.94;6177540;23;20013;-62
2022/09/26 10:59:25;;;;;;;2.42;2.28;;;;;;;15.67;68.22;95197.03;6177942;23;20024;-62
2022/09/26 11:01:55;;;;;;;2.38;2.28;;;;;;;15.55;68.99;95200.19;6177613;23;20001;-62
2022/09/26 11:07:25;;;;;;;2.72;2.50;;;;;;;15.51;68.39;95196.25;6177609;23;20016;-60
2022/09/26 11:09:52;;;;;;;2.80;2.60;;;;;;;15.57;69.23;95199.97;6177739;23;20004;-62
2022/09/26 11:12:34;;;;;;;2.67;2.50;;;;;;;15.63;67.52;95195.78;6177364;23;20009;-62
2022/09/26 11:15:10;;;;;;;2.50;2.40;;;;;;;15.34;70.06;95192.97;6177635;23;20017;-62
2022/09/26 11:17:52;;;;;;;2.25;2.15;;;;;;;15.33;69.92;95199.28;6177178;23;20060;-62
2022/09/26 11:20:24;;;;;;;2.60;2.40;;;;;;;15.39;69.92;95185.28;6177595;23;20054;-62
2022/09/26 11:23:34;;;;;;;2.35;2.25;;;;;;;15.46;68.19;95191.50;6177326;23;20008;-62
2022/09/26 11:26:43;;;;;;;4.45;2.22;;;;;;;15.47;68.51;95187.00;6178678;23;20016;-60
2022/09/26 11:29:20;;;;;;;2.97;2.47;;;;;;;15.73;68.29;95188.34;6177769;23;20005;-61
2022/09/26 11:31:47;;;;;;;3.40;2.72;;;;;;;15.82;67.59;95173.16;6177030;23;20005;-61
2022/09/26 11:34:16;;;;;;;3.28;2.63;;;;;;;15.75;67.61;95184.50;6177933;23;19993;-61
2022/09/26 11:37:03;;;;;;;3.22;2.80;;;;;;;15.30;69.20;95170.47;6178002;22;20013;-62
2022/09/26 11:39:31;;;;;;;2.85;2.65;;;;;;;15.46;69.04;95170.28;6177468;23;20110;-61
2022/09/26 11:42:30;;;;;;;3.17;2.97;;;;;;;15.48;68.77;95162.16;6177442;23;19997;-61
2022/09/26 11:44:58;;;;;;;2.58;2.40;;;;;;;15.70;68.32;95160.34;6177353;23;20024;-62
2022/09/26 11:47:51;;;;;;;3.17;2.78;;;;;;;15.88;67.32;95157.28;6151100;22;20004;-61
2022/09/26 11:50:55;;;;;;;2.63;2.42;;;;;;;16.40;64.80;95143.91;6177407;23;20423;-61
2022/09/26 11:53:35;;;;;;;2.67;2.55;;;;;;;16.38;64.43;95140.63;6177327;23;20411;-62
2022/09/26 11:56:10;;;;;;;2.38;2.28;;;;;;;16.22;65.66;95131.06;6177294;23;20001;-61
2022/09/26 11:58:54;;;;;;;3.13;2.60;;;;;;;15.88;64.26;95130.75;6177339;23;20149;-61
2022/09/26 12:01:36;;;;;;;2.38;2.28;;;;;;;15.79;63.12;95123.06;6177198;23;20008;-62
2022/09/26 12:04:10;;;;;;;3.25;2.30;;;;;;;15.67;65.38;95117.44;6177266;23;20009;-66
2022/09/26 12:06:55;;;;;;;2.35;2.25;;;;;;;15.37;63.65;95113.06;6177213;22;20410;-62